sensor_id;sensor_type;location;lat;lon;timestamp;pressure;altitude;pressure_sealevel;temperature;humidity
41862;BME280;27537;57.134;-2.136;2023-04-06T00:00:36;100373.06;;;9.84;100.00
41862;BME280;27537;57.134;-2.136;2023-04-06T00:03:03;100356.72;;;9.79;100.00
41862;BME280;27537;57.134;-2.136;2023-04-06T00:05:30;100349.16;;;9.72;100.00
41862;BME280;27537;57.134;-2.136;2023-04-06T00:07:57;100403.44;;;10.09;100.00
41862;BME280;27537;57.134;-2.136;2023-04-06T00:10:24;100368.63;;;9.86;100.00
41862;BME280;27537;57.134;-2.136;2023-04-06T00:12:52;100399.91;;;10.10;100.00
41862;BME280;27537;57.134;-2.136;2023-04-06T00:15:19;100346.25;;;9.79;100.00
41862;BME280;27537;57.134;-2.136;2023-04-06T00:17:46;100331.75;;;9.72;100.00
41862;BME280;27537;57.134;-2.136;2023-04-06T00:20:13;100358.84;;;9.92;100.00
41862;BME280;27537;57.134;-2.136;2023-04-06T00:22:40;100347.66;;;9.88;100.00
41862;BME280;27537;57.134;-2.136;2023-04-06T00:25:07;100321.19;;;9.74;100.00
41862;BME280;27537;57.134;-2.136;2023-04-06T00:27:33;100344.81;;;9.93;100.00
41862;BME280;27537;57.134;-2.136;2023-04-06T00:30:01;100338.69;;;9.94;100.00
41862;BME280;27537;57.134;-2.136;2023-04-06T00:32:28;100331.97;;;9.88;100.00
41862;BME280;27537;57.134;-2.136;2023-04-06T00:34:55;100286.81;;;9.62;100.00
41862;BME280;27537;57.134;-2.136;2023-04-06T00:37:21;100345.50;;;9.98;100.00
41862;BME280;27537;57.134;-2.136;2023-04-06T00:39:48;100358.34;;;10.04;100.00
41862;BME280;27537;57.134;-2.136;2023-04-06T00:42:15;100326.72;;;9.88;100.00
41862;BME280;27537;57.134;-2.136;2023-04-06T00:44:42;100359.50;;;10.17;100.00
41862;BME280;27537;57.134;-2.136;2023-04-06T00:47:09;100313.06;;;9.81;100.00
41862;BME280;27537;57.134;-2.136;2023-04-06T00:49:36;100315.59;;;9.83;100.00
41862;BME280;27537;57.134;-2.136;2023-04-06T00:52:02;100290.16;;;9.66;100.00
41862;BME280;27537;57.134;-2.136;2023-04-06T00:54:29;100297.59;;;9.75;100.00
41862;BME280;27537;57.134;-2.136;2023-04-06T00:56:57;100322.13;;;9.93;100.00
41862;BME280;27537;57.134;-2.136;2023-04-06T00:59:24;100310.94;;;9.89;100.00
41862;BME280;27537;57.134;-2.136;2023-04-06T01:01:51;100296.66;;;9.78;100.00
41862;BME280;27537;57.134;-2.136;2023-04-06T01:04:18;100321.13;;;9.97;100.00
41862;BME280;27537;57.134;-2.136;2023-04-06T01:06:45;100300.25;;;9.96;100.00
41862;BME280;27537;57.134;-2.136;2023-04-06T01:09:12;100298.81;;;9.88;100.00
41862;BME280;27537;57.134;-2.136;2023-04-06T01:11:38;100264.66;;;9.71;100.00
41862;BME280;27537;57.134;-2.136;2023-04-06T01:14:05;100282.41;;;9.85;100.00
41862;BME280;27537;57.134;-2.136;2023-04-06T01:16:32;100252.16;;;9.57;100.00
41862;BME280;27537;57.134;-2.136;2023-04-06T01:19:00;100270.78;;;9.70;100.00
41862;BME280;27537;57.134;-2.136;2023-04-06T01:21:26;100292.00;;;9.84;100.00
41862;BME280;27537;57.134;-2.136;2023-04-06T01:23:53;100312.50;;;9.95;100.00
41862;BME280;27537;57.134;-2.136;2023-04-06T01:26:20;100259.03;;;9.60;100.00
41862;BME280;27537;57.134;-2.136;2023-04-06T01:28:47;100277.47;;;9.77;100.00
41862;BME280;27537;57.134;-2.136;2023-04-06T01:31:13;100301.53;;;9.85;100.00
41862;BME280;27537;57.134;-2.136;2023-04-06T01:33:40;100261.44;;;9.64;100.00
41862;BME280;27537;57.134;-2.136;2023-04-06T01:36:07;100238.25;;;9.57;100.00
41862;BME280;27537;57.134;-2.136;2023-04-06T01:38:34;100258.81;;;9.86;100.00
41862;BME280;27537;57.134;-2.136;2023-04-06T01:41:01;100242.63;;;9.77;100.00
41862;BME280;27537;57.134;-2.136;2023-04-06T01:43:28;100256.09;;;9.67;100.00
41862;BME280;27537;57.134;-2.136;2023-04-06T01:45:54;100220.91;;;9.54;100.00
41862;BME280;27537;57.134;-2.136;2023-04-06T01:48:21;100244.97;;;9.62;100.00
41862;BME280;27537;57.134;-2.136;2023-04-06T01:50:48;100229.41;;;9.59;100.00
41862;BME280;27537;57.134;-2.136;2023-04-06T01:53:15;100226.75;;;9.61;100.00
41862;BME280;27537;57.134;-2.136;2023-04-06T01:55:42;100262.31;;;9.85;100.00
41862;BME280;27537;57.134;-2.136;2023-04-06T01:58:09;100245.59;;;9.69;100.00
41862;BME280;27537;57.134;-2.136;2023-04-06T02:00:36;100280.28;;;9.93;100.00
41862;BME280;27537;57.134;-2.136;2023-04-06T02:03:02;100252.19;;;9.78;100.00
41862;BME280;27537;57.134;-2.136;2023-04-06T02:05:31;100268.34;;;9.87;100.00
41862;BME280;27537;57.134;-2.136;2023-04-06T02:07:59;100241.91;;;9.73;100.00
41862;BME280;27537;57.134;-2.136;2023-04-06T02:10:26;100235.56;;;9.58;100.00
41862;BME280;27537;57.134;-2.136;2023-04-06T02:12:52;100198.06;;;9.39;100.00
41862;BME280;27537;57.134;-2.136;2023-04-06T02:15:19;100191.69;;;9.24;100.00
41862;BME280;27537;57.134;-2.136;2023-04-06T02:17:46;100216.41;;;9.37;100.00
41862;BME280;27537;57.134;-2.136;2023-04-06T02:20:13;100225.34;;;9.31;100.00
41862;BME280;27537;57.134;-2.136;2023-04-06T02:22:40;100207.56;;;9.19;100.00
41862;BME280;27537;57.134;-2.136;2023-04-06T02:25:07;100210.44;;;9.11;100.00
41862;BME280;27537;57.134;-2.136;2023-04-06T02:27:34;100266.72;;;9.42;100.00
41862;BME280;27537;57.134;-2.136;2023-04-06T02:30:05;100253.22;;;9.31;100.00
41862;BME280;27537;57.134;-2.136;2023-04-06T02:32:32;100188.75;;;8.89;100.00
41862;BME280;27537;57.134;-2.136;2023-04-06T02:34:59;100241.69;;;9.15;100.00
41862;BME280;27537;57.134;-2.136;2023-04-06T02:37:26;100221.84;;;9.10;100.00
41862;BME280;27537;57.134;-2.136;2023-04-06T02:39:54;100240.53;;;9.22;100.00
41862;BME280;27537;57.134;-2.136;2023-04-06T02:42:20;100248.78;;;9.11;100.00
41862;BME280;27537;57.134;-2.136;2023-04-06T02:44:47;100221.03;;;9.08;100.00
41862;BME280;27537;57.134;-2.136;2023-04-06T02:47:14;100231.97;;;9.18;100.00
41862;BME280;27537;57.134;-2.136;2023-04-06T02:49:41;100204.56;;;9.06;100.00
41862;BME280;27537;57.134;-2.136;2023-04-06T02:52:08;100169.78;;;8.84;100.00
41862;BME280;27537;57.134;-2.136;2023-04-06T02:54:34;100202.94;;;9.04;100.00
41862;BME280;27537;57.134;-2.136;2023-04-06T02:57:01;100269.31;;;9.42;100.00
41862;BME280;27537;57.134;-2.136;2023-04-06T02:59:30;100223.34;;;9.16;100.00
41862;BME280;27537;57.134;-2.136;2023-04-06T03:01:57;100181.91;;;8.85;100.00
41862;BME280;27537;57.134;-2.136;2023-04-06T03:04:24;100199.47;;;9.03;100.00
41862;BME280;27537;57.134;-2.136;2023-04-06T03:06:53;100215.50;;;9.16;100.00
41862;BME280;27537;57.134;-2.136;2023-04-06T03:09:19;100212.00;;;9.17;100.00
41862;BME280;27537;57.134;-2.136;2023-04-06T03:11:46;100222.97;;;9.25;100.00
41862;BME280;27537;57.134;-2.136;2023-04-06T03:14:13;100206.09;;;9.12;100.00
41862;BME280;27537;57.134;-2.136;2023-04-06T03:16:39;100200.16;;;9.08;100.00
41862;BME280;27537;57.134;-2.136;2023-04-06T03:19:06;100151.81;;;8.76;100.00
41862;BME280;27537;57.134;-2.136;2023-04-06T03:21:33;100166.97;;;8.88;100.00
41862;BME280;27537;57.134;-2.136;2023-04-06T03:24:00;100215.44;;;9.18;100.00
41862;BME280;27537;57.134;-2.136;2023-04-06T03:26:27;100223.09;;;9.22;100.00
41862;BME280;27537;57.134;-2.136;2023-04-06T03:28:53;100190.44;;;9.12;100.00
41862;BME280;27537;57.134;-2.136;2023-04-06T03:31:20;100177.09;;;9.18;100.00
41862;BME280;27537;57.134;-2.136;2023-04-06T03:33:47;100180.09;;;9.09;100.00
41862;BME280;27537;57.134;-2.136;2023-04-06T03:36:13;100160.38;;;9.02;100.00
41862;BME280;27537;57.134;-2.136;2023-04-06T03:38:41;100152.81;;;8.94;100.00
41862;BME280;27537;57.134;-2.136;2023-04-06T03:41:07;100184.03;;;9.19;100.00
41862;BME280;27537;57.134;-2.136;2023-04-06T03:43:34;100146.03;;;8.90;100.00
41862;BME280;27537;57.134;-2.136;2023-04-06T03:46:01;100217.50;;;9.31;100.00
41862;BME280;27537;57.134;-2.136;2023-04-06T03:48:27;100180.81;;;9.12;100.00
41862;BME280;27537;57.134;-2.136;2023-04-06T03:50:54;100175.06;;;9.04;100.00
41862;BME280;27537;57.134;-2.136;2023-04-06T03:53:21;100192.72;;;9.20;100.00
41862;BME280;27537;57.134;-2.136;2023-04-06T03:55:48;100191.94;;;9.18;100.00
41862;BME280;27537;57.134;-2.136;2023-04-06T03:58:14;100161.09;;;9.05;100.00
41862;BME280;27537;57.134;-2.136;2023-04-06T04:00:41;100204.44;;;9.31;100.00
41862;BME280;27537;57.134;-2.136;2023-04-06T04:03:08;100147.59;;;8.94;100.00
41862;BME280;27537;57.134;-2.136;2023-04-06T04:05:35;100156.91;;;9.01;100.00
41862;BME280;27537;57.134;-2.136;2023-04-06T04:08:02;100204.56;;;9.49;100.00
41862;BME280;27537;57.134;-2.136;2023-04-06T04:10:29;100144.94;;;9.18;100.00
41862;BME280;27537;57.134;-2.136;2023-04-06T04:12:56;100152.56;;;9.22;100.00
41862;BME280;27537;57.134;-2.136;2023-04-06T04:15:22;100148.38;;;9.18;100.00
41862;BME280;27537;57.134;-2.136;2023-04-06T04:17:49;100207.50;;;9.41;100.00
41862;BME280;27537;57.134;-2.136;2023-04-06T04:20:17;100206.09;;;9.55;100.00
41862;BME280;27537;57.134;-2.136;2023-04-06T04:22:43;100114.38;;;8.98;100.00
41862;BME280;27537;57.134;-2.136;2023-04-06T04:25:10;100120.53;;;8.97;100.00
41862;BME280;27537;57.134;-2.136;2023-04-06T04:27:37;100114.72;;;8.90;100.00
41862;BME280;27537;57.134;-2.136;2023-04-06T04:30:05;100206.00;;;9.36;100.00
41862;BME280;27537;57.134;-2.136;2023-04-06T04:32:32;100167.59;;;9.17;100.00
41862;BME280;27537;57.134;-2.136;2023-04-06T04:34:59;100180.66;;;9.17;100.00
41862;BME280;27537;57.134;-2.136;2023-04-06T04:37:26;100218.81;;;9.42;100.00
41862;BME280;27537;57.134;-2.136;2023-04-06T04:39:52;100202.84;;;9.27;100.00
41862;BME280;27537;57.134;-2.136;2023-04-06T04:42:19;100171.09;;;8.94;100.00
41862;BME280;27537;57.134;-2.136;2023-04-06T04:44:46;100176.25;;;8.96;100.00
41862;BME280;27537;57.134;-2.136;2023-04-06T04:47:12;100176.59;;;8.88;100.00
41862;BME280;27537;57.134;-2.136;2023-04-06T04:49:39;100167.13;;;8.85;100.00
41862;BME280;27537;57.134;-2.136;2023-04-06T04:52:06;100182.53;;;8.91;100.00
41862;BME280;27537;57.134;-2.136;2023-04-06T04:54:32;100175.59;;;8.90;100.00
41862;BME280;27537;57.134;-2.136;2023-04-06T04:56:59;100161.81;;;8.87;100.00
41862;BME280;27537;57.134;-2.136;2023-04-06T04:59:26;100139.31;;;8.84;100.00
41862;BME280;27537;57.134;-2.136;2023-04-06T05:01:53;100168.81;;;9.08;100.00
41862;BME280;27537;57.134;-2.136;2023-04-06T05:04:22;100210.41;;;9.35;100.00
41862;BME280;27537;57.134;-2.136;2023-04-06T05:06:49;100219.13;;;9.34;100.00
41862;BME280;27537;57.134;-2.136;2023-04-06T05:09:16;100168.31;;;8.99;100.00
41862;BME280;27537;57.134;-2.136;2023-04-06T05:11:43;100161.16;;;9.04;100.00
41862;BME280;27537;57.134;-2.136;2023-04-06T05:14:10;100153.50;;;8.99;100.00
41862;BME280;27537;57.134;-2.136;2023-04-06T05:16:37;100178.81;;;9.19;100.00
41862;BME280;27537;57.134;-2.136;2023-04-06T05:19:04;100175.88;;;9.27;100.00
41862;BME280;27537;57.134;-2.136;2023-04-06T05:21:30;100174.56;;;9.17;100.00
41862;BME280;27537;57.134;-2.136;2023-04-06T05:23:58;100168.09;;;9.25;100.00
41862;BME280;27537;57.134;-2.136;2023-04-06T05:26:25;100157.41;;;9.31;100.00
41862;BME280;27537;57.134;-2.136;2023-04-06T05:28:51;100161.06;;;9.27;100.00
41862;BME280;27537;57.134;-2.136;2023-04-06T05:31:18;100142.03;;;9.24;100.00
41862;BME280;27537;57.134;-2.136;2023-04-06T05:33:45;100168.44;;;9.38;100.00
41862;BME280;27537;57.134;-2.136;2023-04-06T05:36:11;100179.88;;;9.36;100.00
41862;BME280;27537;57.134;-2.136;2023-04-06T05:38:40;100182.31;;;9.40;100.00
41862;BME280;27537;57.134;-2.136;2023-04-06T05:41:07;100176.72;;;9.27;100.00
41862;BME280;27537;57.134;-2.136;2023-04-06T05:43:34;100163.72;;;9.26;100.00
41862;BME280;27537;57.134;-2.136;2023-04-06T05:46:01;100180.66;;;9.38;100.00
41862;BME280;27537;57.134;-2.136;2023-04-06T05:48:28;100116.59;;;9.08;100.00
41862;BME280;27537;57.134;-2.136;2023-04-06T05:50:55;100184.53;;;9.49;100.00
41862;BME280;27537;57.134;-2.136;2023-04-06T05:53:21;100159.59;;;9.42;100.00
41862;BME280;27537;57.134;-2.136;2023-04-06T05:55:48;100150.97;;;9.40;100.00
41862;BME280;27537;57.134;-2.136;2023-04-06T05:58:15;100200.69;;;9.80;100.00
41862;BME280;27537;57.134;-2.136;2023-04-06T06:00:43;100201.03;;;9.72;100.00
41862;BME280;27537;57.134;-2.136;2023-04-06T06:03:12;100118.03;;;9.16;100.00
41862;BME280;27537;57.134;-2.136;2023-04-06T06:05:39;100199.97;;;9.76;100.00
41862;BME280;27537;57.134;-2.136;2023-04-06T06:08:06;100173.81;;;9.56;100.00
41862;BME280;27537;57.134;-2.136;2023-04-06T06:10:33;100103.78;;;9.23;100.00
41862;BME280;27537;57.134;-2.136;2023-04-06T06:12:59;100124.13;;;9.37;100.00
41862;BME280;27537;57.134;-2.136;2023-04-06T06:15:26;100156.88;;;9.64;100.00
41862;BME280;27537;57.134;-2.136;2023-04-06T06:17:53;100146.84;;;9.55;100.00
41862;BME280;27537;57.134;-2.136;2023-04-06T06:20:19;100160.44;;;9.63;100.00
41862;BME280;27537;57.134;-2.136;2023-04-06T06:22:46;100185.72;;;9.83;100.00
41862;BME280;27537;57.134;-2.136;2023-04-06T06:25:13;100179.78;;;9.80;100.00
41862;BME280;27537;57.134;-2.136;2023-04-06T06:27:40;100074.06;;;9.25;100.00
41862;BME280;27537;57.134;-2.136;2023-04-06T06:30:07;100168.97;;;9.87;100.00
41862;BME280;27537;57.134;-2.136;2023-04-06T06:32:34;100182.50;;;9.97;100.00
41862;BME280;27537;57.134;-2.136;2023-04-06T06:35:00;100142.63;;;9.72;100.00
41862;BME280;27537;57.134;-2.136;2023-04-06T06:37:27;100146.84;;;9.76;100.00
41862;BME280;27537;57.134;-2.136;2023-04-06T06:39:56;100164.72;;;9.85;100.00
41862;BME280;27537;57.134;-2.136;2023-04-06T06:42:23;100143.22;;;9.78;100.00
41862;BME280;27537;57.134;-2.136;2023-04-06T06:44:50;100145.84;;;9.78;100.00
41862;BME280;27537;57.134;-2.136;2023-04-06T06:47:17;100148.59;;;9.75;100.00
41862;BME280;27537;57.134;-2.136;2023-04-06T06:49:44;100152.56;;;9.84;100.00
41862;BME280;27537;57.134;-2.136;2023-04-06T06:52:11;100136.28;;;9.77;100.00
41862;BME280;27537;57.134;-2.136;2023-04-06T06:54:38;100179.94;;;9.96;100.00
41862;BME280;27537;57.134;-2.136;2023-04-06T06:57:04;100163.53;;;9.92;100.00
41862;BME280;27537;57.134;-2.136;2023-04-06T06:59:31;100136.94;;;9.82;100.00
41862;BME280;27537;57.134;-2.136;2023-04-06T07:01:58;100156.50;;;9.74;100.00
41862;BME280;27537;57.134;-2.136;2023-04-06T07:04:25;100126.38;;;9.65;100.00
41862;BME280;27537;57.134;-2.136;2023-04-06T07:06:52;100156.75;;;9.88;100.00
41862;BME280;27537;57.134;-2.136;2023-04-06T07:09:19;100150.88;;;9.83;100.00
41862;BME280;27537;57.134;-2.136;2023-04-06T07:11:46;100127.00;;;9.70;100.00
41862;BME280;27537;57.134;-2.136;2023-04-06T07:14:12;100141.44;;;9.79;100.00
41862;BME280;27537;57.134;-2.136;2023-04-06T07:16:39;100167.78;;;9.95;100.00
41862;BME280;27537;57.134;-2.136;2023-04-06T07:19:07;100160.41;;;9.84;100.00
41862;BME280;27537;57.134;-2.136;2023-04-06T07:21:35;100194.81;;;9.95;100.00
41862;BME280;27537;57.134;-2.136;2023-04-06T07:24:03;100173.94;;;9.73;100.00
41862;BME280;27537;57.134;-2.136;2023-04-06T07:26:30;100147.81;;;9.73;100.00
41862;BME280;27537;57.134;-2.136;2023-04-06T07:28:56;100163.09;;;9.82;100.00
41862;BME280;27537;57.134;-2.136;2023-04-06T07:31:23;100103.53;;;9.49;100.00
41862;BME280;27537;57.134;-2.136;2023-04-06T07:33:50;100167.22;;;9.88;100.00
41862;BME280;27537;57.134;-2.136;2023-04-06T07:36:16;100128.59;;;9.74;100.00
41862;BME280;27537;57.134;-2.136;2023-04-06T07:38:44;100131.00;;;9.79;100.00
41862;BME280;27537;57.134;-2.136;2023-04-06T07:41:12;100147.22;;;9.87;100.00
41862;BME280;27537;57.134;-2.136;2023-04-06T07:43:39;100147.78;;;9.94;100.00
41862;BME280;27537;57.134;-2.136;2023-04-06T07:46:06;100131.31;;;9.92;100.00
41862;BME280;27537;57.134;-2.136;2023-04-06T07:48:32;100181.13;;;10.28;100.00
41862;BME280;27537;57.134;-2.136;2023-04-06T07:51:03;100170.19;;;10.20;100.00
41862;BME280;27537;57.134;-2.136;2023-04-06T07:53:30;100160.97;;;10.11;100.00
41862;BME280;27537;57.134;-2.136;2023-04-06T07:56:00;100155.03;;;10.07;100.00
41862;BME280;27537;57.134;-2.136;2023-04-06T07:58:27;100136.28;;;9.98;100.00
41862;BME280;27537;57.134;-2.136;2023-04-06T08:00:54;100115.25;;;9.80;100.00
41862;BME280;27537;57.134;-2.136;2023-04-06T08:03:21;100119.44;;;9.84;100.00
41862;BME280;27537;57.134;-2.136;2023-04-06T08:05:52;100151.53;;;10.07;100.00
41862;BME280;27537;57.134;-2.136;2023-04-06T08:08:19;100145.72;;;10.00;100.00
41862;BME280;27537;57.134;-2.136;2023-04-06T08:10:48;100120.28;;;9.85;100.00
41862;BME280;27537;57.134;-2.136;2023-04-06T08:13:15;100131.72;;;9.82;100.00
41862;BME280;27537;57.134;-2.136;2023-04-06T08:15:42;100144.41;;;9.92;100.00
41862;BME280;27537;57.134;-2.136;2023-04-06T08:18:09;100129.31;;;9.78;100.00
41862;BME280;27537;57.134;-2.136;2023-04-06T08:20:36;100140.63;;;9.78;100.00
41862;BME280;27537;57.134;-2.136;2023-04-06T08:23:03;100163.13;;;10.01;100.00
41862;BME280;27537;57.134;-2.136;2023-04-06T08:25:30;100108.34;;;9.59;100.00
41862;BME280;27537;57.134;-2.136;2023-04-06T08:27:57;100180.66;;;9.99;100.00
41862;BME280;27537;57.134;-2.136;2023-04-06T08:30:23;100107.31;;;9.42;100.00
41862;BME280;27537;57.134;-2.136;2023-04-06T08:32:50;100178.66;;;9.85;100.00
41862;BME280;27537;57.134;-2.136;2023-04-06T08:35:17;100190.88;;;9.85;100.00
41862;BME280;27537;57.134;-2.136;2023-04-06T08:37:44;100165.56;;;9.85;100.00
41862;BME280;27537;57.134;-2.136;2023-04-06T08:40:12;100174.72;;;9.75;100.00
41862;BME280;27537;57.134;-2.136;2023-04-06T08:42:40;100161.22;;;9.65;100.00
41862;BME280;27537;57.134;-2.136;2023-04-06T08:45:10;100186.31;;;9.69;100.00
41862;BME280;27537;57.134;-2.136;2023-04-06T08:47:37;100154.63;;;9.57;100.00
41862;BME280;27537;57.134;-2.136;2023-04-06T08:50:04;100184.47;;;9.92;100.00
41862;BME280;27537;57.134;-2.136;2023-04-06T08:52:32;100183.03;;;9.85;100.00
41862;BME280;27537;57.134;-2.136;2023-04-06T08:55:01;100182.81;;;9.48;100.00
41862;BME280;27537;57.134;-2.136;2023-04-06T08:57:28;100184.47;;;9.72;100.00
41862;BME280;27537;57.134;-2.136;2023-04-06T08:59:56;100144.16;;;9.57;100.00
41862;BME280;27537;57.134;-2.136;2023-04-06T09:02:23;100173.47;;;9.84;100.00
41862;BME280;27537;57.134;-2.136;2023-04-06T09:04:53;100138.63;;;9.44;100.00
41862;BME280;27537;57.134;-2.136;2023-04-06T09:07:21;100212.06;;;9.99;100.00
41862;BME280;27537;57.134;-2.136;2023-04-06T09:09:47;100197.59;;;9.91;100.00
41862;BME280;27537;57.134;-2.136;2023-04-06T09:12:28;100153.44;;;9.64;100.00
41862;BME280;27537;57.134;-2.136;2023-04-06T09:14:56;100199.03;;;9.98;100.00
41862;BME280;27537;57.134;-2.136;2023-04-06T09:17:25;100163.31;;;9.78;100.00
41862;BME280;27537;57.134;-2.136;2023-04-06T09:19:52;100170.19;;;9.60;100.00
41862;BME280;27537;57.134;-2.136;2023-04-06T09:22:19;100186.69;;;9.81;100.00
41862;BME280;27537;57.134;-2.136;2023-04-06T09:24:47;100221.97;;;9.91;100.00
41862;BME280;27537;57.134;-2.136;2023-04-06T09:27:14;100215.00;;;9.71;100.00
41862;BME280;27537;57.134;-2.136;2023-04-06T09:29:43;100167.53;;;9.39;100.00
41862;BME280;27537;57.134;-2.136;2023-04-06T09:32:11;100144.47;;;9.49;100.00
41862;BME280;27537;57.134;-2.136;2023-04-06T09:34:38;100178.97;;;9.57;100.00
41862;BME280;27537;57.134;-2.136;2023-04-06T09:37:18;100203.03;;;9.86;100.00
41862;BME280;27537;57.134;-2.136;2023-04-06T09:39:46;100185.84;;;9.80;100.00
41862;BME280;27537;57.134;-2.136;2023-04-06T09:42:25;100183.03;;;9.64;100.00
41862;BME280;27537;57.134;-2.136;2023-04-06T09:44:52;100214.66;;;9.99;100.00
41862;BME280;27537;57.134;-2.136;2023-04-06T09:47:19;100203.53;;;9.74;100.00
41862;BME280;27537;57.134;-2.136;2023-04-06T09:49:47;100214.91;;;9.93;100.00
41862;BME280;27537;57.134;-2.136;2023-04-06T09:52:17;100197.66;;;9.89;100.00
41862;BME280;27537;57.134;-2.136;2023-04-06T09:54:46;100219.63;;;10.05;100.00
41862;BME280;27537;57.134;-2.136;2023-04-06T09:57:27;100210.97;;;10.24;100.00
41862;BME280;27537;57.134;-2.136;2023-04-06T10:00:05;100236.91;;;10.10;100.00
41862;BME280;27537;57.134;-2.136;2023-04-06T10:03:04;100229.81;;;9.91;100.00
41862;BME280;27537;57.134;-2.136;2023-04-06T10:08:13;100207.66;;;9.59;100.00
41862;BME280;27537;57.134;-2.136;2023-04-06T10:10:41;100195.63;;;9.75;100.00
41862;BME280;27537;57.134;-2.136;2023-04-06T10:13:11;100215.75;;;10.14;100.00
41862;BME280;27537;57.134;-2.136;2023-04-06T10:15:38;100187.50;;;9.83;100.00
41862;BME280;27537;57.134;-2.136;2023-04-06T10:18:06;100202.66;;;9.75;100.00
41862;BME280;27537;57.134;-2.136;2023-04-06T10:20:41;100226.91;;;9.99;100.00
41862;BME280;27537;57.134;-2.136;2023-04-06T10:25:59;100182.66;;;9.53;100.00
41862;BME280;27537;57.134;-2.136;2023-04-06T10:28:31;100190.34;;;9.77;100.00
41862;BME280;27537;57.134;-2.136;2023-04-06T10:31:00;100226.69;;;10.03;100.00
41862;BME280;27537;57.134;-2.136;2023-04-06T10:33:28;100186.25;;;9.92;100.00
41862;BME280;27537;57.134;-2.136;2023-04-06T10:35:55;100201.84;;;9.93;100.00
41862;BME280;27537;57.134;-2.136;2023-04-06T10:38:42;100177.28;;;9.77;100.00
41862;BME280;27537;57.134;-2.136;2023-04-06T10:41:12;100210.44;;;9.76;100.00
41862;BME280;27537;57.134;-2.136;2023-04-06T10:43:40;100189.56;;;9.75;100.00
41862;BME280;27537;57.134;-2.136;2023-04-06T10:46:08;100166.69;;;9.80;100.00
41862;BME280;27537;57.134;-2.136;2023-04-06T10:48:44;100245.53;;;10.12;100.00
41862;BME280;27537;57.134;-2.136;2023-04-06T10:51:14;100222.22;;;10.05;100.00
41862;BME280;27537;57.134;-2.136;2023-04-06T10:53:42;100218.72;;;9.86;100.00
41862;BME280;27537;57.134;-2.136;2023-04-06T10:56:11;100232.78;;;9.83;100.00
41862;BME280;27537;57.134;-2.136;2023-04-06T10:58:38;100232.59;;;9.88;100.00
41862;BME280;27537;57.134;-2.136;2023-04-06T11:01:05;100234.53;;;10.03;100.00
41862;BME280;27537;57.134;-2.136;2023-04-06T11:03:42;100218.47;;;9.92;100.00
41862;BME280;27537;57.134;-2.136;2023-04-06T11:06:09;100220.59;;;10.03;100.00
41862;BME280;27537;57.134;-2.136;2023-04-06T11:08:36;100218.06;;;10.01;100.00
41862;BME280;27537;57.134;-2.136;2023-04-06T11:11:06;100254.38;;;10.28;100.00
41862;BME280;27537;57.134;-2.136;2023-04-06T11:13:51;100260.88;;;10.19;100.00
41862;BME280;27537;57.134;-2.136;2023-04-06T11:16:22;100242.50;;;9.80;100.00
41862;BME280;27537;57.134;-2.136;2023-04-06T11:18:58;100262.06;;;9.92;100.00
41862;BME280;27537;57.134;-2.136;2023-04-06T11:21:36;100243.22;;;9.63;100.00
41862;BME280;27537;57.134;-2.136;2023-04-06T11:24:21;100272.13;;;9.80;100.00
41862;BME280;27537;57.134;-2.136;2023-04-06T11:26:54;100251.47;;;9.95;100.00
41862;BME280;27537;57.134;-2.136;2023-04-06T11:29:23;100243.94;;;9.66;100.00
41862;BME280;27537;57.134;-2.136;2023-04-06T11:31:52;100246.53;;;9.46;100.00
41862;BME280;27537;57.134;-2.136;2023-04-06T11:34:24;100252.94;;;9.59;100.00
41862;BME280;27537;57.134;-2.136;2023-04-06T11:36:59;100270.44;;;10.00;100.00
41862;BME280;27537;57.134;-2.136;2023-04-06T11:39:28;100287.41;;;9.89;100.00
41862;BME280;27537;57.134;-2.136;2023-04-06T11:41:59;100225.84;;;9.62;100.00
41862;BME280;27537;57.134;-2.136;2023-04-06T11:44:40;100283.78;;;9.94;100.00
41862;BME280;27537;57.134;-2.136;2023-04-06T11:47:09;100274.94;;;9.76;100.00
41862;BME280;27537;57.134;-2.136;2023-04-06T11:49:37;100244.09;;;9.63;100.00
41862;BME280;27537;57.134;-2.136;2023-04-06T11:54:44;100307.31;;;9.94;100.00
41862;BME280;27537;57.134;-2.136;2023-04-06T11:57:11;100248.03;;;9.52;100.00
41862;BME280;27537;57.134;-2.136;2023-04-06T11:59:38;100229.34;;;9.61;100.00
41862;BME280;27537;57.134;-2.136;2023-04-06T12:02:06;100248.09;;;9.72;100.00
41862;BME280;27537;57.134;-2.136;2023-04-06T12:04:32;100324.75;;;9.93;100.00
41862;BME280;27537;57.134;-2.136;2023-04-06T12:06:59;100292.66;;;10.10;100.00
41862;BME280;27537;57.134;-2.136;2023-04-06T12:09:26;100242.66;;;9.34;100.00
41862;BME280;27537;57.134;-2.136;2023-04-06T12:11:53;100292.59;;;9.26;100.00
41862;BME280;27537;57.134;-2.136;2023-04-06T12:14:20;100318.88;;;9.22;100.00
41862;BME280;27537;57.134;-2.136;2023-04-06T12:16:47;100317.47;;;9.13;100.00
41862;BME280;27537;57.134;-2.136;2023-04-06T12:19:14;100330.38;;;9.18;100.00
41862;BME280;27537;57.134;-2.136;2023-04-06T12:21:40;100287.13;;;8.87;100.00
41862;BME280;27537;57.134;-2.136;2023-04-06T12:24:08;100277.81;;;9.03;100.00
41862;BME280;27537;57.134;-2.136;2023-04-06T12:26:35;100255.63;;;9.13;100.00
41862;BME280;27537;57.134;-2.136;2023-04-06T12:29:03;100275.81;;;9.32;100.00
41862;BME280;27537;57.134;-2.136;2023-04-06T12:31:37;100273.78;;;9.61;100.00
41862;BME280;27537;57.134;-2.136;2023-04-06T12:34:05;100283.97;;;9.68;100.00
41862;BME280;27537;57.134;-2.136;2023-04-06T12:36:33;100271.44;;;9.55;100.00
41862;BME280;27537;57.134;-2.136;2023-04-06T12:39:00;100320.03;;;9.81;100.00
41862;BME280;27537;57.134;-2.136;2023-04-06T12:41:28;100309.78;;;9.76;100.00
41862;BME280;27537;57.134;-2.136;2023-04-06T12:43:55;100327.22;;;9.76;100.00
41862;BME280;27537;57.134;-2.136;2023-04-06T12:46:23;100322.06;;;9.95;100.00
41862;BME280;27537;57.134;-2.136;2023-04-06T12:48:51;100269.72;;;9.76;100.00